createdAt,value
2022-09-05T00:00:31.443Z,4.20
2022-09-05T00:02:41.814Z,4.93
2022-09-05T00:05:01.149Z,4.60
2022-09-05T00:07:09.996Z,4.33
2022-09-05T00:09:56.353Z,4.10
2022-09-05T00:12:01.323Z,4.37
2022-09-05T00:14:34.281Z,4.23
2022-09-05T00:16:52.908Z,4.77
2022-09-05T00:24:18.613Z,4.33
2022-09-05T00:24:34.657Z,4.30
2022-09-05T00:24:43.560Z,4.80
2022-09-05T00:26:52.279Z,5.20
2022-09-05T00:29:03.261Z,5.00
2022-09-05T00:31:53.774Z,4.43
2022-09-05T00:33:51.142Z,4.87
2022-09-05T00:36:08.060Z,4.80
2022-09-05T00:38:15.290Z,4.60
2022-09-05T00:40:26.387Z,4.50
2022-09-05T00:42:29.594Z,4.63
2022-09-05T00:44:34.806Z,4.90
2022-09-05T00:46:40.114Z,4.70
2022-09-05T00:48:50.290Z,5.03
2022-09-05T00:51:29.359Z,4.63
2022-09-05T00:53:43.221Z,4.90
2022-09-05T00:55:58.785Z,4.87
2022-09-05T00:58:12.544Z,5.40
2022-09-05T01:00:18.407Z,5.00
2022-09-05T01:02:36.352Z,5.03
2022-09-05T01:04:55.769Z,5.20
2022-09-05T01:07:21.890Z,5.00
2022-09-05T01:09:39.683Z,4.77
2022-09-05T01:11:52.042Z,4.90
2022-09-05T01:14:01.153Z,4.77
2022-09-05T01:16:10.675Z,4.93
2022-09-05T01:18:27.132Z,4.63
2022-09-05T01:20:51.608Z,5.50
2022-09-05T01:23:18.200Z,5.20
2022-09-05T01:25:29.614Z,5.10
2022-09-05T01:29:12.965Z,5.33
2022-09-05T01:30:13.932Z,5.10
2022-09-05T01:32:26.277Z,5.40
2022-09-05T01:34:35.600Z,5.17
2022-09-05T01:36:51.005Z,5.23
2022-09-05T01:40:01.779Z,5.30
2022-09-05T01:41:31.336Z,4.80
2022-09-05T01:43:51.512Z,6.33
2022-09-05T01:46:00.392Z,5.30
2022-09-05T01:48:06.103Z,5.30
2022-09-05T01:50:22.030Z,4.73
2022-09-05T01:52:30.546Z,5.07
2022-09-05T01:54:41.450Z,4.60
2022-09-05T01:56:53.907Z,4.90
2022-09-05T01:59:11.308Z,5.07
2022-09-05T02:01:27.011Z,5.43
2022-09-05T02:03:42.118Z,5.17
2022-09-05T02:06:25.597Z,5.03
2022-09-05T02:08:41.853Z,4.70
2022-09-05T02:10:56.027Z,5.23
2022-09-05T02:13:04.374Z,4.97
2022-09-05T02:15:14.630Z,5.23
2022-09-05T02:17:51.294Z,5.50
2022-09-05T02:19:53.752Z,5.50
2022-09-05T02:22:02.482Z,5.60
2022-09-05T02:24:13.979Z,6.20
2022-09-05T02:26:19.827Z,5.27
2022-09-05T02:28:28.408Z,5.70
2022-09-05T02:30:36.778Z,5.63
2022-09-05T02:32:59.650Z,5.80
2022-09-05T02:35:08.859Z,5.97
2022-09-05T02:37:16.039Z,5.90
2022-09-05T02:45:03.377Z,5.80
2022-09-05T02:45:13.412Z,5.53
2022-09-05T02:45:14.816Z,5.30
2022-09-05T02:47:02.339Z,5.67
2022-09-05T02:49:38.059Z,6.07
2022-09-05T02:57:30.241Z,5.57
2022-09-05T02:57:36.181Z,5.97
2022-09-05T02:57:46.895Z,5.40
2022-09-05T02:59:16.566Z,5.77
2022-09-05T03:01:32.937Z,5.67
2022-09-05T03:03:41.768Z,5.80
2022-09-05T03:05:49.131Z,5.77
2022-09-05T03:08:08.347Z,6.33
2022-09-05T03:10:48.455Z,5.90
2022-09-05T03:13:19.947Z,6.10
2022-09-05T03:16:04.929Z,5.47
2022-09-05T03:18:25.148Z,6.20
2022-09-05T03:23:54.908Z,6.50
2022-09-05T03:26:35.857Z,6.00
2022-09-05T03:29:15.621Z,5.20
2022-09-05T03:31:38.539Z,6.33
2022-09-05T03:33:59.694Z,5.50
2022-09-05T03:36:50.170Z,6.37
2022-09-05T03:39:36.086Z,6.23
2022-09-05T03:41:53.197Z,6.13
2022-09-05T03:44:12.357Z,6.37
2022-09-05T03:46:28.093Z,6.80
2022-09-05T03:49:04.134Z,6.70
2022-09-05T03:57:08.775Z,6.50
2022-09-05T03:57:14.833Z,5.60
2022-09-05T03:57:38.468Z,6.10
2022-09-05T04:00:05.630Z,5.47
2022-09-05T04:08:05.930Z,5.17
2022-09-05T04:08:09.531Z,5.20
2022-09-05T04:08:30.795Z,6.50
2022-09-05T04:09:49.970Z,5.27
2022-09-05T04:11:57.217Z,6.27
2022-09-05T04:14:04.140Z,6.20
2022-09-05T04:16:12.047Z,6.40
2022-09-05T04:18:32.714Z,6.13
2022-09-05T04:20:40.865Z,6.10
2022-09-05T04:23:06.400Z,6.50
2022-09-05T04:25:13.791Z,6.70
2022-09-05T04:27:30.773Z,6.50
2022-09-05T04:29:45.902Z,6.23
2022-09-05T04:32:17.702Z,6.70
2022-09-05T04:34:38.262Z,6.90
2022-09-05T04:36:41.517Z,7.50
2022-09-05T04:38:46.635Z,6.80
2022-09-05T04:40:51.739Z,6.53
2022-09-05T04:42:54.908Z,6.37
2022-09-05T04:45:04.504Z,7.33
2022-09-05T04:47:12.471Z,6.37
2022-09-05T04:49:23.532Z,7.00
2022-09-05T04:52:02.077Z,7.00
2022-09-05T04:54:23.499Z,6.67
2022-09-05T04:56:34.479Z,6.97
2022-09-05T04:59:58.226Z,6.80
2022-09-05T05:06:04.119Z,6.30
2022-09-05T05:06:13.730Z,7.03
2022-09-05T05:06:19.102Z,7.10
2022-09-05T05:08:29.117Z,6.63
2022-09-05T05:14:12.409Z,6.53
2022-09-05T05:17:59.036Z,6.87
2022-09-05T05:18:09.041Z,7.03
2022-09-05T05:18:39.777Z,7.20
2022-09-05T05:20:44.387Z,7.07
2022-09-05T05:22:57.147Z,6.80
2022-09-05T05:25:01.317Z,6.97
2022-09-05T05:27:08.486Z,6.77
2022-09-05T05:29:18.808Z,7.23
2022-09-05T05:31:25.368Z,7.07
2022-09-05T05:33:33.804Z,8.30
2022-09-05T05:35:45.901Z,6.97
2022-09-05T05:37:53.748Z,7.63
2022-09-05T05:40:06.060Z,7.40
2022-09-05T05:42:21.164Z,7.47
2022-09-05T05:44:27.856Z,7.33
2022-09-05T05:46:33.891Z,7.60
2022-09-05T05:48:39.683Z,7.87
2022-09-05T05:50:50.349Z,7.40
2022-09-05T05:53:12.988Z,6.80
2022-09-05T05:55:58.466Z,6.80
2022-09-05T05:58:24.053Z,7.10
2022-09-05T06:00:39.020Z,6.83
2022-09-05T06:03:26.878Z,7.33
2022-09-05T06:06:03.965Z,7.70
2022-09-05T06:11:43.665Z,6.97
2022-09-05T06:14:55.594Z,6.93
2022-09-05T06:14:59.830Z,6.93
2022-09-05T06:17:42.848Z,6.70
2022-09-05T06:22:06.574Z,7.13
2022-09-05T06:23:38.789Z,6.83
2022-09-05T06:26:18.510Z,6.90
2022-09-05T06:28:26.897Z,7.00
2022-09-05T06:30:36.427Z,6.97
2022-09-05T06:33:02.017Z,6.27
2022-09-05T06:35:23.017Z,6.80
2022-09-05T06:37:35.347Z,6.87
2022-09-05T06:39:54.084Z,6.30
2022-09-05T06:42:28.540Z,6.60
2022-09-05T06:44:48.126Z,7.33
2022-09-05T06:47:22.187Z,7.03
2022-09-05T06:49:30.599Z,6.77
2022-09-05T06:52:28.914Z,6.43
2022-09-05T06:54:59.601Z,7.00
2022-09-05T06:57:16.730Z,7.60
2022-09-05T06:59:56.974Z,6.20
2022-09-05T07:02:08.634Z,7.10
2022-09-05T07:05:21.782Z,6.90
2022-09-05T07:07:02.359Z,6.70
2022-09-05T07:09:20.745Z,7.20
2022-09-05T07:11:27.200Z,6.20
2022-09-05T07:13:34.762Z,6.93
2022-09-05T07:15:44.389Z,6.80
2022-09-05T07:18:09.940Z,6.23
2022-09-05T07:20:22.049Z,6.37
2022-09-05T07:22:47.445Z,6.17
2022-09-05T07:24:54.176Z,6.00
2022-09-05T07:27:00.804Z,6.40
2022-09-05T07:29:05.868Z,6.07
2022-09-05T07:31:37.280Z,5.80
2022-09-05T07:33:41.225Z,6.03
2022-09-05T07:35:44.588Z,5.83
2022-09-05T07:37:50.542Z,5.10
2022-09-05T07:39:55.988Z,5.50
2022-09-05T07:42:06.272Z,5.83
2022-09-05T07:44:18.803Z,5.43
2022-09-05T07:46:27.943Z,5.30
2022-09-05T07:48:35.801Z,5.60
2022-09-05T07:54:31.635Z,5.33
2022-09-05T07:57:00.803Z,5.10
2022-09-05T07:57:08.507Z,4.97
2022-09-05T07:58:02.062Z,4.67
2022-09-05T08:00:25.695Z,5.33
2022-09-05T08:02:31.144Z,4.80
2022-09-05T08:04:36.162Z,4.40
2022-09-05T08:07:46.737Z,4.63
2022-09-05T08:10:05.968Z,4.77
2022-09-05T08:11:32.457Z,4.83
2022-09-05T08:13:50.078Z,4.70
2022-09-05T08:16:12.945Z,4.60
2022-09-05T08:18:18.972Z,4.43
2022-09-05T08:20:31.787Z,4.73
2022-09-05T08:22:52.133Z,4.00
2022-09-05T08:25:01.864Z,4.30
2022-09-05T08:27:16.394Z,3.80
2022-09-05T08:29:31.915Z,3.80
2022-09-05T08:31:38.602Z,4.07
2022-09-05T08:33:45.866Z,4.20
2022-09-05T08:35:53.083Z,3.80
2022-09-05T08:38:02.846Z,3.20
2022-09-05T08:40:11.640Z,3.30
2022-09-05T08:42:27.051Z,3.37
2022-09-05T08:46:37.517Z,3.20
2022-09-05T08:47:08.760Z,3.30
2022-09-05T08:49:53.818Z,3.30
2022-09-05T08:51:58.678Z,10.00
2022-09-05T08:54:11.992Z,8.27
2022-09-05T08:56:20.663Z,5.83
2022-09-05T08:59:27.127Z,2.60
2022-09-05T09:01:22.635Z,2.80
2022-09-05T09:03:30.364Z,2.87
2022-09-05T09:06:13.542Z,3.20
2022-09-05T09:08:22.245Z,2.37
2022-09-05T09:10:34.900Z,2.43
2022-09-05T09:13:09.739Z,2.40
2022-09-05T09:15:19.416Z,2.47
2022-09-05T09:17:32.668Z,2.60
2022-09-05T09:19:46.586Z,2.20
2022-09-05T09:21:58.739Z,2.80
2022-09-05T09:24:10.562Z,2.23
2022-09-05T09:26:15.877Z,2.20
2022-09-05T09:28:51.397Z,2.10
2022-09-05T09:30:58.644Z,2.37
2022-09-05T09:33:06.442Z,2.30
2022-09-05T09:35:13.042Z,2.60
2022-09-05T09:37:49.598Z,2.60
2022-09-05T09:40:10.426Z,2.53
2022-09-05T09:42:33.443Z,2.37
2022-09-05T09:45:28.802Z,2.47
2022-09-05T09:47:41.886Z,2.50
2022-09-05T09:50:10.199Z,2.40
2022-09-05T09:52:46.391Z,3.70
2022-09-05T09:55:27.156Z,2.00
2022-09-05T09:58:14.408Z,2.20
2022-09-05T10:00:21.111Z,2.53
2022-09-05T10:06:52.518Z,2.43
2022-09-05T10:10:34.141Z,2.30
2022-09-05T10:10:45.889Z,2.50
2022-09-05T10:11:49.985Z,2.47
2022-09-05T10:14:30.735Z,2.60
2022-09-05T10:17:06.991Z,2.50
2022-09-05T10:22:40.336Z,2.40
2022-09-05T10:25:19.599Z,2.47
2022-09-05T10:27:30.303Z,2.50
2022-09-05T10:30:10.700Z,2.63
2022-09-05T10:35:11.722Z,2.30
2022-09-05T10:35:17.317Z,2.53
2022-09-05T10:37:13.752Z,2.70
2022-09-05T10:39:21.099Z,2.90
2022-09-05T10:41:34.083Z,2.90
2022-09-05T10:43:45.108Z,2.37
2022-09-05T10:45:53.251Z,2.53
2022-09-05T10:48:13.182Z,2.37
2022-09-05T10:50:27.196Z,2.20
2022-09-05T10:52:36.160Z,2.47
2022-09-05T10:54:49.799Z,3.63
2022-09-05T10:57:01.780Z,2.27
2022-09-05T11:02:04.717Z,2.30
2022-09-05T11:02:30.090Z,2.50
2022-09-05T11:04:18.120Z,2.50
2022-09-05T11:06:26.205Z,2.50
2022-09-05T11:08:37.205Z,2.57
2022-09-05T11:10:46.765Z,2.20
2022-09-05T11:13:03.019Z,2.43
2022-09-05T11:15:09.198Z,2.57
2022-09-05T11:17:19.229Z,2.60
2022-09-05T11:19:28.381Z,2.23
2022-09-05T11:21:47.172Z,2.47
2022-09-05T11:23:57.084Z,2.33
2022-09-05T11:26:04.581Z,2.20
2022-09-05T11:28:15.021Z,2.60
2022-09-05T11:30:30.057Z,2.53
2022-09-05T11:39:20.616Z,2.40
2022-09-05T11:39:55.011Z,2.37
2022-09-05T11:40:02.215Z,2.50
2022-09-05T11:41:25.140Z,2.33
2022-09-05T11:44:25.942Z,2.53
2022-09-05T11:46:34.413Z,2.50
2022-09-05T11:49:15.371Z,2.33
2022-09-05T11:51:51.162Z,2.43
2022-09-05T11:54:28.028Z,2.40
2022-09-05T11:57:32.528Z,2.60
2022-09-05T12:00:31.637Z,2.80
2022-09-05T12:02:59.191Z,2.23
2022-09-05T12:05:49.202Z,2.40
2022-09-05T12:07:52.400Z,2.27
2022-09-05T12:10:07.106Z,2.40
2022-09-05T12:12:39.516Z,2.33
2022-09-05T12:14:54.866Z,2.33
2022-09-05T12:17:10.178Z,2.43
2022-09-05T12:19:28.001Z,2.43
2022-09-05T12:21:38.301Z,2.33
2022-09-05T12:24:28.574Z,2.33
2022-09-05T12:27:41.627Z,2.37
2022-09-05T12:29:27.347Z,2.50
2022-09-05T12:32:36.606Z,2.67
2022-09-05T12:36:10.694Z,2.50
2022-09-05T12:40:05.153Z,2.40
2022-09-05T12:40:45.163Z,2.57
2022-09-05T12:41:43.841Z,2.70
2022-09-05T12:44:13.842Z,2.57
2022-09-05T12:46:00.370Z,2.30
2022-09-05T12:48:11.513Z,2.30
2022-09-05T12:50:18.016Z,2.27
2022-09-05T12:52:37.482Z,2.67
2022-09-05T12:54:46.539Z,2.80
2022-09-05T13:00:24.213Z,2.17
2022-09-05T13:02:58.986Z,2.60
2022-09-05T13:03:11.270Z,2.40
2022-09-05T13:04:25.502Z,2.17
2022-09-05T13:06:39.162Z,2.20
2022-09-05T13:08:58.950Z,2.10
2022-09-05T13:14:46.964Z,2.10
2022-09-05T13:15:03.007Z,2.20
2022-09-05T13:15:55.351Z,2.20
2022-09-05T13:18:08.517Z,2.67
2022-09-05T13:20:16.666Z,2.37
2022-09-05T13:22:23.618Z,2.17
2022-09-05T13:24:30.716Z,2.30
2022-09-05T13:26:36.782Z,2.53
2022-09-05T13:28:48.842Z,2.23
2022-09-05T13:35:51.842Z,2.70
2022-09-05T13:38:02.866Z,1.90
2022-09-05T13:38:03.468Z,2.17
2022-09-05T13:38:48.091Z,2.13
2022-09-05T13:40:58.131Z,2.10
2022-09-05T13:43:07.504Z,1.87
2022-09-05T13:45:18.517Z,2.30
2022-09-05T13:47:45.651Z,1.87
2022-09-05T13:49:54.125Z,2.30
2022-09-05T13:52:09.124Z,2.20
2022-09-05T13:54:36.311Z,2.37
2022-09-05T13:56:46.021Z,2.00
2022-09-05T13:58:56.970Z,2.20
2022-09-05T14:01:29.776Z,1.90
2022-09-05T14:09:44.614Z,2.33
2022-09-05T14:11:55.347Z,2.10
2022-09-05T14:14:11.387Z,2.00
2022-09-05T14:16:16.763Z,2.13
2022-09-05T14:18:22.693Z,2.07
2022-09-05T14:20:49.515Z,1.83
2022-09-05T14:22:56.240Z,1.60
2022-09-05T14:25:00.255Z,1.90
2022-09-05T14:27:13.748Z,1.30
2022-09-05T14:29:20.681Z,1.50
2022-09-05T14:37:39.635Z,1.60
2022-09-05T14:37:53.759Z,1.73
2022-09-05T14:37:55.240Z,1.70
2022-09-05T14:39:21.358Z,1.93
2022-09-05T14:42:07.399Z,1.90
2022-09-05T14:44:29.835Z,2.30
2022-09-05T14:47:02.221Z,2.23
2022-09-05T14:49:21.995Z,1.80
2022-09-05T14:51:43.225Z,2.30
2022-09-05T14:56:56.385Z,2.27
2022-09-05T15:02:44.772Z,2.23
2022-09-05T15:02:53.586Z,2.20
2022-09-05T15:03:23.399Z,2.20
2022-09-05T15:05:40.018Z,2.60
2022-09-05T15:07:44.917Z,2.20
2022-09-05T15:12:17.409Z,2.40
2022-09-05T15:12:33.022Z,2.17
2022-09-05T15:14:37.556Z,2.13
2022-09-05T15:16:57.972Z,2.20
2022-09-05T15:19:01.099Z,2.30
2022-09-05T15:21:33.198Z,2.10
2022-09-05T15:23:38.277Z,2.43
2022-09-05T15:25:47.462Z,2.10
2022-09-05T15:27:50.852Z,2.30
2022-09-05T15:29:55.851Z,3.30
2022-09-05T15:32:14.976Z,2.03
2022-09-05T15:34:24.714Z,2.50
2022-09-05T15:36:32.899Z,2.10
2022-09-05T15:38:56.218Z,1.83
2022-09-05T15:41:19.731Z,1.87
2022-09-05T15:43:24.921Z,1.87
2022-09-05T15:45:29.920Z,2.20
2022-09-05T15:47:35.128Z,1.97
2022-09-05T15:49:41.013Z,1.80
2022-09-05T15:51:47.217Z,2.20
2022-09-05T15:53:52.431Z,1.83
2022-09-05T15:56:03.779Z,2.00
2022-09-05T15:58:10.343Z,2.37
2022-09-05T16:00:33.578Z,2.10
2022-09-05T16:02:40.646Z,2.23
2022-09-05T16:04:47.897Z,2.27
2022-09-05T16:10:28.079Z,2.00
2022-09-05T16:10:36.336Z,2.30
2022-09-05T16:12:16.893Z,2.00
2022-09-05T16:14:24.991Z,2.20
2022-09-05T16:23:13.234Z,2.07
2022-09-05T16:23:13.911Z,2.33
2022-09-05T16:23:24.296Z,1.90
2022-09-05T16:23:46.491Z,2.17
2022-09-05T16:25:52.696Z,2.03
2022-09-05T16:27:58.576Z,2.40
2022-09-05T16:30:01.982Z,2.20
2022-09-05T16:32:16.180Z,2.10
2022-09-05T16:34:23.414Z,2.47
2022-09-05T16:36:29.424Z,1.90
2022-09-05T16:38:48.862Z,2.30
2022-09-05T16:40:54.701Z,2.10
2022-09-05T16:43:03.759Z,2.30
2022-09-05T16:45:14.139Z,2.23
2022-09-05T16:47:23.190Z,2.37
2022-09-05T16:49:41.758Z,2.30
2022-09-05T16:51:50.187Z,2.20
2022-09-05T16:53:59.034Z,2.40
2022-09-05T16:56:07.940Z,2.20
2022-09-05T16:58:15.450Z,2.20
2022-09-05T17:00:18.730Z,2.43
2022-09-05T17:02:28.286Z,2.37
2022-09-05T17:05:03.427Z,2.80
2022-09-05T17:07:17.795Z,2.20
2022-09-05T17:09:23.241Z,2.40
2022-09-05T17:11:30.055Z,2.10
2022-09-05T17:13:41.748Z,1.93
2022-09-05T17:15:51.957Z,2.23
2022-09-05T17:18:22.597Z,2.20
2022-09-05T17:20:27.647Z,2.27
2022-09-05T17:24:30.507Z,2.57
2022-09-05T17:29:26.226Z,2.40
2022-09-05T17:29:30.405Z,2.10
2022-09-05T17:32:29.513Z,2.77
2022-09-05T17:34:49.634Z,3.17
2022-09-05T17:37:14.820Z,3.63
2022-09-05T17:39:44.136Z,3.60
2022-09-05T17:42:00.330Z,5.07
2022-09-05T17:44:10.409Z,5.10
2022-09-05T17:46:18.853Z,3.60
2022-09-05T17:49:18.523Z,3.00
2022-09-05T17:52:06.861Z,2.60
2022-09-05T17:54:28.529Z,2.63
2022-09-05T17:56:34.946Z,4.17
2022-09-05T17:58:50.176Z,2.50
2022-09-05T18:01:05.601Z,3.43
2022-09-05T18:03:08.775Z,2.63
2022-09-05T18:05:47.978Z,2.60
2022-09-05T18:07:58.107Z,2.30
2022-09-05T18:10:14.674Z,8.77
2022-09-05T18:15:04.842Z,2.40
2022-09-05T18:17:52.382Z,4.80
2022-09-05T18:20:06.504Z,3.83
2022-09-05T18:22:22.374Z,3.60
2022-09-05T18:24:42.366Z,2.90
2022-09-05T18:26:53.311Z,2.70
2022-09-05T18:29:01.913Z,4.80
2022-09-05T18:31:43.792Z,23.63
2022-09-05T18:34:38.810Z,4.50
2022-09-05T18:36:42.407Z,3.90
2022-09-05T18:38:50.787Z,3.23
2022-09-05T18:41:12.382Z,2.70
2022-09-05T18:43:25.077Z,2.90
2022-09-05T18:45:33.873Z,3.20
2022-09-05T18:47:51.287Z,3.40
2022-09-05T18:50:25.014Z,3.30
2022-09-05T18:52:28.195Z,2.93
2022-09-05T18:54:34.863Z,3.10
2022-09-05T18:57:13.925Z,3.17
2022-09-05T18:59:12.157Z,3.17
2022-09-05T19:01:25.824Z,3.13
2022-09-05T19:03:33.027Z,2.97
2022-09-05T19:05:40.874Z,3.10
2022-09-05T19:07:48.347Z,3.10
2022-09-05T19:10:33.917Z,7.60
2022-09-05T19:12:33.143Z,7.00
2022-09-05T19:14:46.256Z,4.77
2022-09-05T19:16:50.204Z,4.00
2022-09-05T19:19:08.869Z,4.00
2022-09-05T19:21:16.807Z,3.77
2022-09-05T19:23:23.220Z,3.43
2022-09-05T19:25:30.620Z,3.30
2022-09-05T19:32:37.464Z,3.13
2022-09-05T19:36:50.326Z,3.77
2022-09-05T19:37:05.141Z,4.00
2022-09-05T19:37:08.542Z,3.80
2022-09-05T19:37:29.468Z,4.00
2022-09-05T19:46:15.451Z,5.97
2022-09-05T19:47:46.499Z,3.80
2022-09-05T19:47:48.808Z,3.90
2022-09-05T19:47:51.862Z,4.97
2022-09-05T19:49:22.238Z,3.20
2022-09-05T19:51:26.992Z,9.00
2022-09-05T19:53:30.360Z,7.30
2022-09-05T19:55:38.187Z,4.37
2022-09-05T19:57:52.634Z,6.20
2022-09-05T20:00:14.247Z,4.57
2022-09-05T20:02:24.996Z,3.40
2022-09-05T20:04:32.118Z,3.60
2022-09-05T20:06:39.672Z,3.93
2022-09-05T20:08:42.908Z,3.80
2022-09-05T20:10:46.734Z,4.10
2022-09-05T20:12:49.970Z,3.87
2022-09-05T20:14:53.201Z,3.40
2022-09-05T20:17:19.129Z,4.30
2022-09-05T20:19:29.301Z,4.10
2022-09-05T20:21:33.860Z,4.03
2022-09-05T20:23:39.798Z,4.10
2022-09-05T20:25:44.265Z,4.10
2022-09-05T20:27:47.849Z,4.03
2022-09-05T20:29:55.995Z,3.93
2022-09-05T20:32:00.780Z,4.10
2022-09-05T20:34:14.958Z,3.87
2022-09-05T20:43:11.575Z,4.33
2022-09-05T20:43:17.116Z,4.80
2022-09-05T20:43:20.996Z,5.37
2022-09-05T20:43:55.790Z,4.97
2022-09-05T20:48:21.953Z,5.03
2022-09-05T20:54:07.459Z,5.70
2022-09-05T20:54:14.955Z,5.57
2022-09-05T20:54:31.064Z,6.27
2022-09-05T20:55:46.974Z,6.27
2022-09-05T20:57:50.780Z,5.30
2022-09-05T20:59:54.091Z,4.93
2022-09-05T21:01:59.334Z,5.40
2022-09-05T21:04:05.637Z,4.87
2022-09-05T21:06:20.007Z,4.60
2022-09-05T21:08:33.010Z,4.50
2022-09-05T21:10:55.051Z,4.67
2022-09-05T21:13:00.058Z,4.93
2022-09-05T21:15:31.726Z,4.60
2022-09-05T21:17:32.183Z,4.63
2022-09-05T21:19:37.359Z,5.23
2022-09-05T21:21:40.772Z,5.13
2022-09-05T21:23:44.253Z,5.13
2022-09-05T21:25:50.009Z,4.87
2022-09-05T21:28:00.940Z,5.10
2022-09-05T21:30:24.219Z,5.37
2022-09-05T21:32:38.298Z,5.13
2022-09-05T21:34:48.473Z,5.53
2022-09-05T21:37:07.644Z,5.40
2022-09-05T21:39:11.238Z,6.03
2022-09-05T21:41:17.255Z,6.13
2022-09-05T21:47:35.623Z,8.97
2022-09-05T21:47:48.043Z,8.10
2022-09-05T21:48:07.876Z,7.83
2022-09-05T21:50:14.051Z,7.50
2022-09-05T21:52:34.701Z,7.00
2022-09-05T21:59:13.804Z,6.20
2022-09-05T21:59:25.145Z,6.10
2022-09-05T21:59:46.980Z,5.33
2022-09-05T22:01:53.130Z,5.37
2022-09-05T22:03:58.156Z,5.60
2022-09-05T22:06:07.381Z,5.23
2022-09-05T22:08:13.223Z,5.47
2022-09-05T22:10:16.753Z,5.13
2022-09-05T22:12:30.148Z,5.27
2022-09-05T22:14:34.341Z,5.37
2022-09-05T22:16:45.188Z,5.30
2022-09-05T22:18:49.784Z,5.47
2022-09-05T22:21:29.562Z,5.87
2022-09-05T22:23:18.480Z,6.20
2022-09-05T22:25:28.070Z,6.40
2022-09-05T22:27:32.744Z,6.37
2022-09-05T22:29:36.095Z,6.37
2022-09-05T22:31:39.368Z,5.60
2022-09-05T22:33:42.611Z,5.90
2022-09-05T22:35:45.696Z,6.30
2022-09-05T22:37:49.438Z,6.10
2022-09-05T22:40:04.989Z,5.40
2022-09-05T22:42:10.546Z,5.77
2022-09-05T22:44:14.143Z,5.60
2022-09-05T22:46:17.485Z,5.67
2022-09-05T22:48:20.648Z,5.20
2022-09-05T22:50:24.104Z,5.20
2022-09-05T22:52:27.140Z,5.40
2022-09-05T22:54:30.210Z,5.17
2022-09-05T22:56:36.648Z,5.20
2022-09-05T22:58:41.111Z,4.97
2022-09-05T23:00:45.023Z,5.20
2022-09-05T23:02:52.456Z,5.80
2022-09-05T23:04:56.024Z,5.40
2022-09-05T23:07:02.566Z,5.30
2022-09-05T23:09:05.625Z,5.10
2022-09-05T23:11:09.470Z,5.33
2022-09-05T23:13:13.922Z,5.10
2022-09-05T23:15:17.074Z,5.60
2022-09-05T23:17:20.219Z,5.47
2022-09-05T23:19:23.290Z,5.13
2022-09-05T23:21:26.487Z,5.10
2022-09-05T23:23:29.810Z,5.70
2022-09-05T23:25:33.553Z,5.43
2022-09-05T23:27:37.703Z,5.90
2022-09-05T23:29:42.088Z,5.20
2022-09-05T23:31:45.147Z,5.17
2022-09-05T23:33:48.311Z,5.60
2022-09-05T23:35:51.316Z,5.77
2022-09-05T23:37:54.459Z,5.10
2022-09-05T23:39:57.975Z,5.80
2022-09-05T23:42:01.042Z,5.40
2022-09-05T23:44:04.159Z,5.50
2022-09-05T23:46:08.978Z,6.13
2022-09-05T23:48:12.226Z,6.10
2022-09-05T23:50:15.565Z,7.00
2022-09-05T23:52:18.582Z,6.43
2022-09-05T23:54:21.659Z,6.30
2022-09-05T23:56:24.905Z,6.37
2022-09-05T23:58:28.942Z,5.80
